createdAt,value
2019-04-28T00:01:28.091Z,89.68
2019-04-28T00:03:55.384Z,89.63
2019-04-28T00:06:22.420Z,89.56
2019-04-28T00:08:49.451Z,89.70
2019-04-28T00:11:16.570Z,89.83
2019-04-28T00:13:43.602Z,89.80
2019-04-28T00:16:11.588Z,89.74
2019-04-28T00:18:38.842Z,89.85
2019-04-28T00:21:06.858Z,89.94
2019-04-28T00:23:33.889Z,89.92
2019-04-28T00:26:01.533Z,90.00
2019-04-28T00:28:29.045Z,89.89
2019-04-28T00:30:56.093Z,89.69
2019-04-28T00:33:23.125Z,89.67
2019-04-28T00:35:51.542Z,89.69
2019-04-28T00:38:19.014Z,89.43
2019-04-28T00:40:46.075Z,89.25
2019-04-28T00:43:13.339Z,88.53
2019-04-28T00:45:41.334Z,88.79
2019-04-28T00:48:08.396Z,88.42
2019-04-28T00:50:35.687Z,88.54
2019-04-28T00:53:02.722Z,87.92
2019-04-28T00:55:29.769Z,88.27
2019-04-28T00:57:56.872Z,87.76
2019-04-28T01:00:24.187Z,87.77
2019-04-28T01:02:51.208Z,87.74
2019-04-28T01:05:18.257Z,87.94
2019-04-28T01:07:45.293Z,87.79
2019-04-28T01:10:12.335Z,87.92
2019-04-28T01:12:41.128Z,87.44
2019-04-28T01:15:10.248Z,88.01
2019-04-28T01:17:40.450Z,88.05
2019-04-28T01:20:07.483Z,88.37
2019-04-28T01:22:34.773Z,88.38
2019-04-28T01:25:01.809Z,88.51
2019-04-28T01:27:30.402Z,88.31
2019-04-28T01:30:07.584Z,88.09
2019-04-28T01:32:26.249Z,88.07
2019-04-28T01:34:53.285Z,88.06
2019-04-28T01:37:20.337Z,88.09
2019-04-28T01:39:49.489Z,88.29
2019-04-28T01:42:16.355Z,88.18
2019-04-28T01:44:43.706Z,88.35
2019-04-28T01:47:11.064Z,88.43
2019-04-28T01:49:40.432Z,88.46
2019-04-28T01:52:07.513Z,88.59
2019-04-28T01:54:34.552Z,88.42
2019-04-28T01:57:01.690Z,88.70
2019-04-28T01:59:30.361Z,88.49
2019-04-28T02:01:57.508Z,88.44
2019-04-28T02:04:24.807Z,88.76
2019-04-28T02:06:52.157Z,88.87
2019-04-28T02:09:19.536Z,88.90
2019-04-28T02:11:46.865Z,88.94
2019-04-28T02:14:14.221Z,89.01
2019-04-28T02:16:41.281Z,88.94
2019-04-28T02:19:10.624Z,89.07
2019-04-28T02:21:37.365Z,89.14
2019-04-28T02:24:04.405Z,89.24
2019-04-28T02:26:31.447Z,89.18
2019-04-28T02:29:00.284Z,89.28
2019-04-28T02:31:27.370Z,89.46
2019-04-28T02:33:54.667Z,89.56
2019-04-28T02:36:22.005Z,89.64
2019-04-28T02:38:51.340Z,89.62
2019-04-28T02:41:20.706Z,89.84
2019-04-28T02:43:47.167Z,89.91
2019-04-28T02:46:14.194Z,89.73
2019-04-28T02:48:41.521Z,89.56
2019-04-28T02:51:10.859Z,89.44
2019-04-28T02:53:37.270Z,89.37
2019-04-28T02:56:05.275Z,89.34
2019-04-28T02:58:32.308Z,89.32
2019-04-28T03:01:10.718Z,89.00
2019-04-28T03:03:30.649Z,89.05
2019-04-28T03:05:57.060Z,89.04
2019-04-28T03:08:24.116Z,89.09
2019-04-28T03:10:51.390Z,89.19
2019-04-28T03:13:20.921Z,88.91
2019-04-28T03:15:47.403Z,89.01
2019-04-28T03:18:14.445Z,89.23
2019-04-28T03:20:42.040Z,89.42
2019-04-28T03:23:12.258Z,89.68
2019-04-28T03:25:40.832Z,89.76
2019-04-28T03:28:06.804Z,89.93
2019-04-28T03:30:34.301Z,90.12
2019-04-28T03:33:10.726Z,90.40
2019-04-28T03:35:32.637Z,90.38
2019-04-28T03:38:01.240Z,90.23
2019-04-28T03:40:27.654Z,90.03
2019-04-28T03:42:54.705Z,90.11
2019-04-28T03:45:21.736Z,89.80
2019-04-28T03:47:50.915Z,89.83
2019-04-28T03:50:20.082Z,89.79
2019-04-28T03:52:46.248Z,90.01
2019-04-28T03:55:13.297Z,89.98
2019-04-28T03:57:41.260Z,89.99
2019-04-28T04:00:10.964Z,90.01
2019-04-28T04:02:37.284Z,90.13
2019-04-28T04:05:04.659Z,89.92
2019-04-28T04:07:31.690Z,90.04
2019-04-28T04:10:00.912Z,89.83
2019-04-28T04:12:27.465Z,89.87
2019-04-28T04:14:54.522Z,89.73
2019-04-28T04:17:21.555Z,89.78
2019-04-28T04:19:50.338Z,89.84
2019-04-28T04:22:17.421Z,89.91
2019-04-28T04:24:44.728Z,89.58
2019-04-28T04:27:12.091Z,89.56
2019-04-28T04:29:43.312Z,89.25
2019-04-28T04:32:15.177Z,89.42
2019-04-28T04:34:36.870Z,89.28
2019-04-28T04:37:03.903Z,88.87
2019-04-28T04:39:31.221Z,88.22
2019-04-28T04:42:00.576Z,88.03
2019-04-28T04:44:27.077Z,87.04
2019-04-28T04:46:54.412Z,87.05
2019-04-28T04:49:21.838Z,86.62
2019-04-28T04:51:50.856Z,86.87
2019-04-28T04:54:20.268Z,86.45
2019-04-28T04:56:46.596Z,86.45
2019-04-28T04:59:13.645Z,86.30
2019-04-28T05:01:41.032Z,86.48
2019-04-28T05:04:09.663Z,85.72
2019-04-28T05:06:37.040Z,84.84
2019-04-28T05:09:04.393Z,84.73
2019-04-28T05:11:31.729Z,83.36
2019-04-28T05:13:59.646Z,82.56
2019-04-28T05:16:26.897Z,83.18
2019-04-28T05:18:53.939Z,80.84
2019-04-28T05:21:21.574Z,71.74
2019-04-28T05:23:49.324Z,64.79
2019-04-28T05:26:17.341Z,58.02
2019-04-28T05:28:51.442Z,53.86
2019-04-28T05:31:19.957Z,51.73
2019-04-28T05:33:42.233Z,50.37
2019-04-28T05:36:09.883Z,48.75
2019-04-28T05:38:37.249Z,45.56
2019-04-28T05:41:04.616Z,43.88
2019-04-28T05:43:31.655Z,43.18
2019-04-28T05:46:00.278Z,38.28
2019-04-28T05:48:27.530Z,37.62
2019-04-28T05:50:54.582Z,37.73
2019-04-28T05:53:21.905Z,36.05
2019-04-28T05:55:50.198Z,33.52
2019-04-28T05:58:17.469Z,33.82
2019-04-28T06:00:44.523Z,31.81
2019-04-28T06:03:11.552Z,31.05
2019-04-28T06:05:39.488Z,32.18
2019-04-28T06:08:06.961Z,31.53
2019-04-28T06:10:34.316Z,31.06
2019-04-28T06:13:01.357Z,30.47
2019-04-28T06:15:29.608Z,30.61
2019-04-28T06:17:56.607Z,29.65
2019-04-28T06:20:23.897Z,29.37
2019-04-28T06:22:51.105Z,28.70
2019-04-28T06:25:18.200Z,32.13
2019-04-28T06:27:45.204Z,34.99
2019-04-28T06:30:14.410Z,37.85
2019-04-28T06:32:41.462Z,41.36
2019-04-28T06:35:09.928Z,43.28
2019-04-28T06:37:37.265Z,44.33
2019-04-28T06:40:16.341Z,44.99
2019-04-28T06:42:43.835Z,46.70
2019-04-28T06:45:12.890Z,45.67
2019-04-28T06:47:40.183Z,43.72
2019-04-28T06:50:07.422Z,37.71
2019-04-28T06:52:35.717Z,38.77
2019-04-28T06:55:04.006Z,39.24
2019-04-28T06:57:37.980Z,41.47
2019-04-28T07:00:08.282Z,42.54
2019-04-28T07:02:35.558Z,39.11
2019-04-28T07:05:04.722Z,36.64
2019-04-28T07:07:32.916Z,33.27
2019-04-28T07:10:01.349Z,33.50
2019-04-28T07:15:08.050Z,32.55
2019-04-28T07:17:39.186Z,30.07
2019-04-28T07:20:06.864Z,31.33
2019-04-28T07:22:33.923Z,33.96
2019-04-28T07:25:01.970Z,37.51
2019-04-28T07:27:29.367Z,39.46
2019-04-28T07:29:57.293Z,38.67
2019-04-28T07:32:26.540Z,38.39
2019-04-28T07:34:53.772Z,38.33
2019-04-28T07:37:20.937Z,38.31
2019-04-28T07:39:53.299Z,40.46
2019-04-28T07:42:22.523Z,42.34
2019-04-28T07:44:55.960Z,41.13
2019-04-28T07:47:23.028Z,42.88
2019-04-28T07:49:50.174Z,41.56
2019-04-28T07:52:17.234Z,39.89
2019-04-28T07:54:47.457Z,37.80
2019-04-28T07:59:56.832Z,40.30
2019-04-28T08:02:24.158Z,42.81
2019-04-28T08:04:51.913Z,43.61
2019-04-28T08:07:19.470Z,44.06
2019-04-28T08:09:48.604Z,44.61
2019-04-28T08:12:18.092Z,44.75
2019-04-28T08:14:45.262Z,47.42
2019-04-28T08:17:18.231Z,49.29
2019-04-28T08:19:46.790Z,49.90
2019-04-28T08:22:19.857Z,47.13
2019-04-28T08:24:51.842Z,40.86
2019-04-28T08:27:18.887Z,39.61
2019-04-28T08:29:57.811Z,37.53
2019-04-28T08:32:16.278Z,36.50
2019-04-28T08:37:18.296Z,39.81
2019-04-28T08:39:47.484Z,41.28
2019-04-28T08:42:14.723Z,39.77
2019-04-28T08:44:46.758Z,36.52
2019-04-28T08:47:22.030Z,34.48
2019-04-28T08:49:49.304Z,33.03
2019-04-28T08:52:16.349Z,32.25
2019-04-28T08:54:43.925Z,33.53
2019-04-28T08:57:16.491Z,34.87
2019-04-28T08:59:47.582Z,37.25
2019-04-28T09:02:16.059Z,38.45
2019-04-28T09:04:45.309Z,38.66
2019-04-28T09:09:49.648Z,41.00
2019-04-28T09:12:16.642Z,43.39
2019-04-28T09:14:48.980Z,46.53
2019-04-28T09:17:16.268Z,50.34
2019-04-28T09:19:43.465Z,51.76
2019-04-28T09:22:18.066Z,51.10
2019-04-28T09:24:46.271Z,50.52
2019-04-28T09:29:44.876Z,43.78
2019-04-28T09:32:12.299Z,44.15
2019-04-28T09:34:39.966Z,43.66
2019-04-28T09:37:07.230Z,41.31
2019-04-28T09:39:39.669Z,42.00
2019-04-28T09:42:06.869Z,44.43
2019-04-28T09:47:12.434Z,48.09
2019-04-28T09:49:39.686Z,48.33
2019-04-28T09:52:06.980Z,47.83
2019-04-28T09:54:36.236Z,47.48
2019-04-28T09:57:04.393Z,45.89
2019-04-28T09:59:36.963Z,44.60
2019-04-28T10:02:05.146Z,44.53
2019-04-28T10:04:41.606Z,42.87
2019-04-28T10:07:21.741Z,43.01
2019-04-28T10:09:50.225Z,42.93
2019-04-28T10:12:27.366Z,43.91
2019-04-28T10:14:54.044Z,44.67
2019-04-28T10:17:23.361Z,43.06
2019-04-28T10:19:50.804Z,40.93
2019-04-28T10:22:23.206Z,39.49
2019-04-28T10:24:52.701Z,38.02
2019-04-28T10:27:22.190Z,41.57
2019-04-28T10:29:50.412Z,42.61
2019-04-28T10:32:19.596Z,44.21
2019-04-28T10:34:54.696Z,46.12
2019-04-28T10:37:22.668Z,46.11
2019-04-28T10:42:24.157Z,47.40
2019-04-28T10:47:35.589Z,45.17
2019-04-28T10:50:03.107Z,41.84
2019-04-28T10:52:31.378Z,38.28
2019-04-28T10:55:03.375Z,35.28
2019-04-28T10:57:32.668Z,35.72
2019-04-28T10:59:59.937Z,38.65
2019-04-28T11:02:27.866Z,41.78
2019-04-28T11:05:07.814Z,43.34
2019-04-28T11:07:27.717Z,45.02
2019-04-28T11:09:56.920Z,46.68
2019-04-28T11:12:24.151Z,47.12
2019-04-28T11:14:52.010Z,47.05
2019-04-28T11:17:19.073Z,47.68
2019-04-28T11:19:46.722Z,48.65
2019-04-28T11:22:13.924Z,47.25
2019-04-28T11:24:42.383Z,44.77
2019-04-28T11:27:09.653Z,41.19
2019-04-28T11:29:49.357Z,39.03
2019-04-28T11:32:20.697Z,36.50
2019-04-28T11:34:49.945Z,31.42
2019-04-28T11:37:17.456Z,30.55
2019-04-28T11:39:45.244Z,30.79
2019-04-28T11:42:14.828Z,28.79
2019-04-28T11:44:48.842Z,29.83
2019-04-28T11:49:49.080Z,30.25
2019-04-28T11:52:17.583Z,31.78
2019-04-28T11:54:50.887Z,31.89
2019-04-28T11:57:18.159Z,32.32
2019-04-28T11:59:58.370Z,30.65
2019-04-28T12:02:25.930Z,30.47
2019-04-28T12:04:53.112Z,29.35
2019-04-28T12:07:21.403Z,28.39
2019-04-28T12:10:03.343Z,28.55
2019-04-28T12:12:20.795Z,26.77
2019-04-28T12:14:48.542Z,25.23
2019-04-28T12:17:15.740Z,24.34
2019-04-28T12:19:48.245Z,25.23
2019-04-28T12:22:15.724Z,25.86
2019-04-28T12:24:47.093Z,25.12
2019-04-28T12:27:18.266Z,23.30
2019-04-28T12:29:47.010Z,22.11
2019-04-28T12:32:14.463Z,20.79
2019-04-28T12:34:48.513Z,21.57
2019-04-28T12:37:15.789Z,23.47
2019-04-28T12:39:44.296Z,26.39
2019-04-28T12:42:11.513Z,28.95
2019-04-28T12:44:45.645Z,30.19
2019-04-28T12:47:16.320Z,31.88
2019-04-28T12:49:45.818Z,34.47
2019-04-28T12:52:14.090Z,38.17
2019-04-28T12:54:48.241Z,42.38
2019-04-28T12:57:15.575Z,47.19
2019-04-28T12:59:43.331Z,51.32
2019-04-28T13:04:51.763Z,55.58
2019-04-28T13:07:18.813Z,58.17
2019-04-28T13:12:16.228Z,59.30
2019-04-28T13:14:52.054Z,59.47
2019-04-28T13:17:19.238Z,58.20
2019-04-28T13:19:46.277Z,59.34
2019-04-28T13:22:25.178Z,62.15
2019-04-28T13:24:52.380Z,57.38
2019-04-28T13:27:24.902Z,54.82
2019-04-28T13:29:56.386Z,52.90
2019-04-28T13:35:09.380Z,50.04
2019-04-28T13:40:09.797Z,48.63
2019-04-28T13:42:37.067Z,49.71
2019-04-28T13:45:04.941Z,46.17
2019-04-28T13:47:32.323Z,46.17
2019-04-28T13:49:59.656Z,47.62
2019-04-28T13:52:28.118Z,45.64
2019-04-28T13:54:55.334Z,42.61
2019-04-28T13:57:22.379Z,44.41
2019-04-28T13:59:50.019Z,45.80
2019-04-28T14:02:17.173Z,44.61
2019-04-28T14:04:44.447Z,44.34
2019-04-28T14:07:13.650Z,44.06
2019-04-28T14:09:42.876Z,43.69
2019-04-28T14:12:11.001Z,43.99
2019-04-28T14:14:39.194Z,42.96
2019-04-28T14:17:21.583Z,41.72
2019-04-28T14:19:53.261Z,45.14
2019-04-28T14:22:27.049Z,43.77
2019-04-28T14:24:55.248Z,43.11
2019-04-28T14:27:31.799Z,43.42
2019-04-28T14:32:32.044Z,39.41
2019-04-28T14:35:04.317Z,40.59
2019-04-28T14:37:32.050Z,38.85
2019-04-28T14:39:59.242Z,41.24
2019-04-28T14:42:26.465Z,40.87
2019-04-28T14:44:53.755Z,42.66
2019-04-28T14:47:21.896Z,41.84
2019-04-28T14:49:49.226Z,42.31
2019-04-28T14:52:17.427Z,42.02
2019-04-28T14:54:44.489Z,41.16
2019-04-28T14:57:14.642Z,40.21
2019-04-28T14:59:43.924Z,41.51
2019-04-28T15:02:12.166Z,41.41
2019-04-28T15:04:39.376Z,40.06
2019-04-28T15:07:07.283Z,41.38
2019-04-28T15:09:34.457Z,43.37
2019-04-28T15:12:09.593Z,45.24
2019-04-28T15:14:36.857Z,45.11
2019-04-28T15:17:04.789Z,46.24
2019-04-28T15:19:33.367Z,45.56
2019-04-28T15:22:07.602Z,47.98
2019-04-28T15:27:10.475Z,48.63
2019-04-28T15:29:43.202Z,49.56
2019-04-28T15:32:12.653Z,49.63
2019-04-28T15:37:18.343Z,50.34
2019-04-28T15:39:46.625Z,49.79
2019-04-28T15:42:15.086Z,48.70
2019-04-28T15:44:44.606Z,48.44
2019-04-28T15:47:12.789Z,49.11
2019-04-28T15:49:44.670Z,50.37
2019-04-28T15:52:26.420Z,50.54
2019-04-28T15:54:53.478Z,52.06
2019-04-28T15:57:20.638Z,51.56
2019-04-28T15:59:48.173Z,52.74
2019-04-28T16:02:15.942Z,52.16
2019-04-28T16:07:24.700Z,53.76
2019-04-28T16:15:01.911Z,54.00
2019-04-28T16:17:32.417Z,54.41
2019-04-28T16:19:59.533Z,55.37
2019-04-28T16:22:30.852Z,56.57
2019-04-28T16:24:59.308Z,56.75
2019-04-28T16:27:27.073Z,56.29
2019-04-28T16:29:56.297Z,56.72
2019-04-28T16:32:23.725Z,56.91
2019-04-28T16:34:50.903Z,56.62
2019-04-28T16:40:07.691Z,56.09
2019-04-28T16:42:34.034Z,54.98
2019-04-28T16:45:08.075Z,55.14
2019-04-28T16:47:36.382Z,56.27
2019-04-28T16:50:04.310Z,56.17
2019-04-28T16:52:37.281Z,55.37
2019-04-28T16:57:44.859Z,56.34
2019-04-28T17:00:18.113Z,57.42
2019-04-28T17:02:45.447Z,56.95
2019-04-28T17:05:17.752Z,56.93
2019-04-28T17:07:53.306Z,56.15
2019-04-28T17:10:17.970Z,56.24
2019-04-28T17:12:45.407Z,56.47
2019-04-28T17:15:17.719Z,56.45
2019-04-28T17:17:45.242Z,56.59
2019-04-28T17:20:12.290Z,56.08
2019-04-28T17:22:39.483Z,55.89
2019-04-28T17:25:06.521Z,54.25
2019-04-28T17:27:46.334Z,54.47
2019-04-28T17:30:13.667Z,55.56
2019-04-28T17:32:42.567Z,55.55
2019-04-28T17:35:12.195Z,54.43
2019-04-28T17:37:45.532Z,55.05
2019-04-28T17:40:12.571Z,54.55
2019-04-28T17:42:41.771Z,54.72
2019-04-28T17:45:09.007Z,53.71
2019-04-28T17:47:36.544Z,53.68
2019-04-28T17:50:04.762Z,53.93
2019-04-28T17:52:31.971Z,53.99
2019-04-28T17:54:59.660Z,54.10
2019-04-28T17:57:28.640Z,54.28
2019-04-28T17:59:55.969Z,55.57
2019-04-28T18:02:24.403Z,55.05
2019-04-28T18:04:51.543Z,55.15
2019-04-28T18:07:25.637Z,54.64
2019-04-28T18:09:53.490Z,55.25
2019-04-28T18:12:26.069Z,55.34
2019-04-28T18:17:23.990Z,57.07
2019-04-28T18:19:58.392Z,56.33
2019-04-28T18:22:25.829Z,56.72
2019-04-28T18:24:54.382Z,57.92
2019-04-28T18:27:22.635Z,57.88
2019-04-28T18:29:54.889Z,57.70
2019-04-28T18:32:25.614Z,58.30
2019-04-28T18:34:53.243Z,58.20
2019-04-28T18:37:20.714Z,58.00
2019-04-28T18:39:48.915Z,58.13
2019-04-28T18:42:21.941Z,58.15
2019-04-28T18:44:49.156Z,58.67
2019-04-28T18:47:17.353Z,59.29
2019-04-28T18:49:44.589Z,59.37
2019-04-28T18:52:12.644Z,59.69
2019-04-28T18:54:45.767Z,60.17
2019-04-28T18:57:13.074Z,60.60
2019-04-28T18:59:41.295Z,61.06
2019-04-28T19:02:14.238Z,61.58
2019-04-28T19:04:41.438Z,62.07
2019-04-28T19:07:14.502Z,62.42
2019-04-28T19:09:43.062Z,63.17
2019-04-28T19:12:11.523Z,63.88
2019-04-28T19:14:44.420Z,64.43
2019-04-28T19:17:12.374Z,65.15
2019-04-28T19:19:42.596Z,65.74
2019-04-28T19:22:12.963Z,66.36
2019-04-28T19:24:40.528Z,66.94
2019-04-28T19:27:08.761Z,67.02
2019-04-28T19:29:35.870Z,66.96
2019-04-28T19:32:06.664Z,67.70
2019-04-28T19:39:46.692Z,67.96
2019-04-28T19:42:14.739Z,68.57
2019-04-28T19:44:41.918Z,68.00
2019-04-28T19:47:09.937Z,67.64
2019-04-28T19:49:42.255Z,67.87
2019-04-28T19:52:11.437Z,67.89
2019-04-28T19:54:39.694Z,67.84
2019-04-28T19:57:07.951Z,67.98
2019-04-28T20:02:14.317Z,68.11
2019-04-28T20:04:42.947Z,68.12
2019-04-28T20:07:11.972Z,68.31
2019-04-28T20:09:39.238Z,68.58
2019-04-28T20:12:06.457Z,69.55
2019-04-28T20:14:33.995Z,69.68
2019-04-28T20:17:01.899Z,70.30
2019-04-28T20:19:30.644Z,70.19
2019-04-28T20:21:57.826Z,70.57
2019-04-28T20:24:26.120Z,70.66
2019-04-28T20:26:53.361Z,71.16
2019-04-28T20:29:23.169Z,71.86
2019-04-28T20:31:49.595Z,72.68
2019-04-28T20:34:16.871Z,72.68
2019-04-28T20:36:45.320Z,72.54
2019-04-28T20:39:16.891Z,72.27
2019-04-28T20:41:48.953Z,72.29
2019-04-28T20:44:16.556Z,72.22
2019-04-28T20:46:48.140Z,72.33
2019-04-28T20:49:22.190Z,72.32
2019-04-28T20:51:49.457Z,72.46
2019-04-28T20:54:16.682Z,72.37
2019-04-28T20:56:48.361Z,72.58
2019-04-28T20:59:15.593Z,72.53
2019-04-28T21:01:42.766Z,72.47
2019-04-28T21:04:10.687Z,72.46
2019-04-28T21:06:37.889Z,72.76
2019-04-28T21:09:14.128Z,73.17
2019-04-28T21:14:20.867Z,73.69
2019-04-28T21:16:47.949Z,73.66
2019-04-28T21:19:14.980Z,74.07
2019-04-28T21:21:42.034Z,74.10
2019-04-28T21:24:09.230Z,74.31
2019-04-28T21:26:36.282Z,74.46
2019-04-28T21:29:03.315Z,74.81
2019-04-28T21:31:32.813Z,74.83
2019-04-28T21:33:59.941Z,74.86
2019-04-28T21:36:26.984Z,74.95
2019-04-28T21:38:54.018Z,75.21
2019-04-28T21:41:21.059Z,75.29
2019-04-28T21:43:49.367Z,75.53
2019-04-28T21:46:16.411Z,75.60
2019-04-28T21:48:44.418Z,75.92
2019-04-28T21:51:12.300Z,76.16
2019-04-28T21:53:40.441Z,76.09
2019-04-28T21:56:07.529Z,76.19
2019-04-28T21:58:34.749Z,76.54
2019-04-28T22:01:01.806Z,76.59
2019-04-28T22:03:30.457Z,76.71
2019-04-28T22:05:57.504Z,76.83
2019-04-28T22:08:24.587Z,76.88
2019-04-28T22:10:51.917Z,76.79
2019-04-28T22:13:18.961Z,77.00
2019-04-28T22:15:46.322Z,77.24
2019-04-28T22:18:13.378Z,77.26
2019-04-28T22:20:40.403Z,77.38
2019-04-28T22:23:17.981Z,77.47
2019-04-28T22:25:36.428Z,77.59
2019-04-28T22:28:03.802Z,77.50
2019-04-28T22:30:30.828Z,77.62
2019-04-28T22:32:57.875Z,78.05
2019-04-28T22:35:25.167Z,78.01
2019-04-28T22:37:52.211Z,78.17
2019-04-28T22:40:19.589Z,78.12
2019-04-28T22:42:46.599Z,78.40
2019-04-28T22:45:13.644Z,78.43
2019-04-28T22:47:40.999Z,78.42
2019-04-28T22:50:08.032Z,78.44
2019-04-28T22:52:38.989Z,78.48
2019-04-28T22:55:06.350Z,78.66
2019-04-28T22:57:33.645Z,78.71
2019-04-28T23:00:01.747Z,78.62
2019-04-28T23:02:30.268Z,78.60
2019-04-28T23:04:57.311Z,78.65
2019-04-28T23:07:24.601Z,78.56
2019-04-28T23:09:51.630Z,78.43
2019-04-28T23:12:18.677Z,78.41
2019-04-28T23:14:45.704Z,78.54
2019-04-28T23:17:12.752Z,78.64
2019-04-28T23:19:40.019Z,78.74
2019-04-28T23:22:07.108Z,78.97
2019-04-28T23:24:34.103Z,79.06
2019-04-28T23:27:01.136Z,79.01
2019-04-28T23:29:30.595Z,78.98
2019-04-28T23:31:57.185Z,79.10
2019-04-28T23:34:24.567Z,79.21
2019-04-28T23:36:51.577Z,79.30
2019-04-28T23:39:18.625Z,79.35
2019-04-28T23:41:45.660Z,79.44
2019-04-28T23:44:12.705Z,79.34
2019-04-28T23:46:39.732Z,79.43
2019-04-28T23:49:06.788Z,79.62
2019-04-28T23:51:33.822Z,79.58
2019-04-28T23:54:01.126Z,79.62
2019-04-28T23:56:28.484Z,79.63
2019-04-28T23:58:55.534Z,79.90
